Hondo, Texas
Current Conditions -  °F | °C
As of 6:51 PM on Sunday 23 Nov 2014 (Local Time) from KHDO Reporting Station
Clear Clear  
Wind Chill: 59°   Ceiling: Unl
Heat Index: 59°   Visibility: 10mi
Dew Point: 44°   Wind: 10mph
Humidity: 58%   Direction: 250°WSW
Pressure: 29.67"   Gusts: NA
Location:  29.35°N, 99.14°W
Report Text: KHDO 240051Z AUTO 25009KT 10SM CLR 15/07 A2967 RMK AO2 SLP042 T01500067
Loading
Personal Weather Stations






























Interactive Weather Map New forecast layout! Learn more

10-Day Weather Forecast

Advertisements
Track Severe Weather on mobile